Lamona, Washington
Current Conditions -  °F | °C
As of 10:52 AM on Friday 31 Oct 2014 (Local Time) from KMWH Reporting Station
Light Rain Light Rain  
Wind Chill: 51°   Ceiling: 700
Heat Index: 51°   Visibility: 2.5mi
Dew Point: 50°   Wind: 7mph
Humidity: 96%   Direction: 140°SE
Pressure: 29.74"   Gusts: NA
Location:  47.36°N, 118.48°W
Report Text: KMWH 311752Z 14006KT 2 1/2SM -RA BR BKN007 OVC065 11/10 A2974 RMK AO2 RAB28 SLP073 P0000 60004 T01060100 10106 20094 51010
Loading
Personal Weather Stations






























Interactive Weather Map
Tropical Storm Tracking
New forecast layout! Learn more

10-Day Weather Forecast

Advertisements
Track Severe Weather on mobile